createdAt,value
2018-06-27T00:01:53.435Z,21.55
2018-06-27T00:04:22.611Z,21.47
2018-06-27T00:06:51.485Z,21.46
2018-06-27T00:09:20.380Z,21.45
2018-06-27T00:11:49.725Z,21.42
2018-06-27T00:14:18.649Z,21.37
2018-06-27T00:16:47.608Z,21.33
2018-06-27T00:19:16.916Z,21.30
2018-06-27T00:21:45.827Z,21.28
2018-06-27T00:24:14.728Z,21.27
2018-06-27T00:26:44.001Z,21.24
2018-06-27T00:29:12.930Z,21.21
2018-06-27T00:31:41.828Z,21.22
2018-06-27T00:34:11.011Z,21.19
2018-06-27T00:36:39.909Z,21.14
2018-06-27T00:39:10.012Z,21.14
2018-06-27T00:41:39.547Z,21.11
2018-06-27T00:44:08.498Z,21.08
2018-06-27T00:46:37.673Z,21.06
2018-06-27T00:49:07.110Z,21.06
2018-06-27T00:51:36.304Z,21.05
2018-06-27T00:54:08.645Z,20.98
2018-06-27T00:56:40.470Z,20.96
2018-06-27T00:59:09.666Z,20.90
2018-06-27T01:01:39.226Z,20.87
2018-06-27T01:04:08.571Z,20.83
2018-06-27T01:06:37.472Z,20.79
2018-06-27T01:09:08.663Z,20.75
2018-06-27T01:11:38.085Z,20.72
2018-06-27T01:14:07.022Z,20.70
2018-06-27T01:16:35.937Z,20.63
2018-06-27T01:19:04.881Z,20.62
2018-06-27T01:21:34.407Z,20.58
2018-06-27T01:24:04.458Z,20.56
2018-06-27T01:26:48.601Z,20.52
2018-06-27T01:29:17.497Z,20.44
2018-06-27T01:31:46.727Z,20.41
2018-06-27T01:34:15.635Z,20.37
2018-06-27T01:36:44.539Z,20.37
2018-06-27T01:39:13.828Z,20.33
2018-06-27T01:41:42.724Z,20.32
2018-06-27T01:44:11.633Z,20.30
2018-06-27T01:46:40.550Z,20.28
2018-06-27T01:49:09.428Z,20.23
2018-06-27T01:51:38.647Z,20.21
2018-06-27T01:54:07.532Z,20.19
2018-06-27T01:56:36.443Z,20.17
2018-06-27T01:59:05.380Z,20.15
2018-06-27T02:01:34.280Z,20.10
2018-06-27T02:04:04.117Z,20.08
2018-06-27T02:06:32.973Z,20.06
2018-06-27T02:09:01.965Z,20.00
2018-06-27T02:11:31.343Z,20.00
2018-06-27T02:14:00.276Z,19.97
2018-06-27T02:16:29.144Z,19.91
2018-06-27T02:18:58.425Z,19.88
2018-06-27T02:21:27.352Z,19.84
2018-06-27T02:23:56.256Z,19.81
2018-06-27T02:26:26.461Z,19.77
2018-06-27T02:28:55.414Z,19.75
2018-06-27T02:31:24.333Z,19.70
2018-06-27T02:33:53.540Z,19.67
2018-06-27T02:36:22.460Z,19.64
2018-06-27T02:38:51.343Z,19.59
2018-06-27T02:41:20.644Z,19.55
2018-06-27T02:43:49.581Z,19.53
2018-06-27T02:46:18.504Z,19.53
2018-06-27T02:48:47.721Z,19.52
2018-06-27T02:51:16.631Z,19.50
2018-06-27T02:53:45.564Z,19.48
2018-06-27T02:56:14.788Z,19.44
2018-06-27T02:58:43.805Z,19.39
2018-06-27T03:01:12.709Z,19.39
2018-06-27T03:03:42.089Z,19.36
2018-06-27T03:06:10.992Z,19.33
2018-06-27T03:08:39.892Z,19.29
2018-06-27T03:11:09.253Z,19.26
2018-06-27T03:13:38.153Z,19.20
2018-06-27T03:16:07.034Z,19.19
2018-06-27T03:18:36.555Z,19.17
2018-06-27T03:21:05.478Z,19.15
2018-06-27T03:23:34.366Z,19.12
2018-06-27T03:26:04.229Z,19.10
2018-06-27T03:28:33.196Z,19.07
2018-06-27T03:31:02.112Z,19.04
2018-06-27T03:33:31.626Z,19.04
2018-06-27T03:36:00.520Z,19.03
2018-06-27T03:38:29.474Z,19.02
2018-06-27T03:43:37.225Z,18.96
2018-06-27T03:46:06.146Z,18.95
2018-06-27T03:48:35.580Z,18.94
2018-06-27T03:51:04.580Z,18.93
2018-06-27T03:53:43.530Z,18.93
2018-06-27T03:56:13.024Z,18.91
2018-06-27T03:58:41.953Z,18.92
2018-06-27T04:03:50.376Z,18.96
2018-06-27T04:06:19.578Z,18.99
2018-06-27T04:08:48.908Z,18.97
2018-06-27T04:11:17.924Z,18.96
2018-06-27T04:13:50.737Z,18.99
2018-06-27T04:16:21.016Z,19.02
2018-06-27T04:18:57.928Z,19.03
2018-06-27T04:21:27.107Z,19.02
2018-06-27T04:23:55.988Z,19.02
2018-06-27T04:26:25.040Z,19.02
2018-06-27T04:28:54.616Z,19.02
2018-06-27T04:31:23.601Z,19.05
2018-06-27T04:33:52.588Z,19.09
2018-06-27T04:36:21.938Z,19.13
2018-06-27T04:38:50.876Z,19.16
2018-06-27T04:41:19.775Z,19.19
2018-06-27T04:43:49.227Z,19.27
2018-06-27T04:46:18.172Z,19.32
2018-06-27T04:48:47.151Z,19.38
2018-06-27T04:51:16.425Z,19.46
2018-06-27T04:53:45.336Z,19.53
2018-06-27T04:56:14.257Z,19.57
2018-06-27T04:58:43.760Z,19.65
2018-06-27T05:01:12.672Z,19.71
2018-06-27T05:03:41.582Z,19.69
2018-06-27T05:06:11.006Z,19.77
2018-06-27T05:08:39.889Z,19.81
2018-06-27T05:11:08.865Z,19.86
2018-06-27T05:13:38.271Z,19.97
2018-06-27T05:16:07.192Z,20.04
2018-06-27T05:18:36.132Z,20.12
2018-06-27T05:21:05.577Z,20.20
2018-06-27T05:23:34.572Z,20.27
2018-06-27T05:26:04.303Z,20.34
2018-06-27T05:28:33.280Z,20.41
2018-06-27T05:31:02.296Z,20.43
2018-06-27T05:33:31.735Z,20.50
2018-06-27T05:36:00.685Z,20.59
2018-06-27T05:38:29.601Z,20.65
2018-06-27T05:40:58.583Z,20.71
2018-06-27T05:43:27.496Z,20.77
2018-06-27T05:45:56.896Z,20.84
2018-06-27T05:48:25.832Z,20.95
2018-06-27T05:50:54.818Z,21.04
2018-06-27T05:53:24.038Z,21.10
2018-06-27T05:55:53.005Z,21.12
2018-06-27T05:58:22.045Z,21.21
2018-06-27T06:00:51.543Z,21.32
2018-06-27T06:03:20.501Z,21.38
2018-06-27T06:05:49.506Z,21.51
2018-06-27T06:08:19.757Z,21.64
2018-06-27T06:10:48.837Z,21.77
2018-06-27T06:13:17.863Z,21.82
2018-06-27T06:15:47.077Z,21.87
2018-06-27T06:18:15.967Z,21.96
2018-06-27T06:20:45.059Z,22.06
2018-06-27T06:23:15.360Z,22.11
2018-06-27T06:25:44.244Z,22.17
2018-06-27T06:28:13.152Z,22.20
2018-06-27T06:30:43.346Z,22.31
2018-06-27T06:33:12.280Z,22.39
2018-06-27T06:35:41.210Z,22.46
2018-06-27T06:38:10.228Z,22.49
2018-06-27T06:40:39.186Z,22.53
2018-06-27T06:43:08.125Z,22.60
2018-06-27T06:45:37.432Z,22.67
2018-06-27T06:48:06.646Z,22.73
2018-06-27T06:50:35.564Z,22.81
2018-06-27T06:53:05.247Z,22.85
2018-06-27T06:55:34.167Z,22.93
2018-06-27T06:58:03.460Z,22.99
2018-06-27T07:00:32.690Z,23.04
2018-06-27T07:03:01.630Z,23.13
2018-06-27T07:05:30.536Z,23.16
2018-06-27T07:07:59.861Z,23.18
2018-06-27T07:10:28.803Z,23.24
2018-06-27T07:12:57.747Z,23.23
2018-06-27T07:15:26.724Z,23.32
2018-06-27T07:17:55.742Z,23.36
2018-06-27T07:20:25.081Z,23.35
2018-06-27T07:22:53.971Z,23.41
2018-06-27T07:25:22.908Z,23.42
2018-06-27T07:27:52.603Z,23.47
2018-06-27T07:30:21.567Z,23.50
2018-06-27T07:32:50.494Z,23.57
2018-06-27T07:35:19.871Z,23.61
2018-06-27T07:37:48.766Z,23.61
2018-06-27T07:40:17.616Z,23.68
2018-06-27T07:42:46.921Z,23.73
2018-06-27T07:45:15.863Z,23.79
2018-06-27T07:47:44.833Z,23.85
2018-06-27T07:50:14.605Z,23.84
2018-06-27T07:52:44.488Z,23.81
2018-06-27T07:55:13.435Z,23.68
2018-06-27T07:57:42.772Z,23.72
2018-06-27T08:00:11.745Z,23.70
2018-06-27T08:02:40.790Z,23.65
2018-06-27T08:05:10.189Z,23.70
2018-06-27T08:07:39.095Z,23.61
2018-06-27T08:10:08.117Z,23.66
2018-06-27T08:12:37.397Z,23.75
2018-06-27T08:15:06.678Z,23.81
2018-06-27T08:17:35.696Z,23.88
2018-06-27T08:20:05.781Z,23.95
2018-06-27T08:22:34.737Z,23.99
2018-06-27T08:25:03.883Z,24.06
2018-06-27T08:27:32.912Z,24.14
2018-06-27T08:30:02.408Z,24.22
2018-06-27T08:32:31.883Z,24.25
2018-06-27T08:35:00.745Z,24.21
2018-06-27T08:37:29.657Z,24.22
2018-06-27T08:39:58.565Z,24.22
2018-06-27T08:42:27.441Z,24.21
2018-06-27T08:44:56.761Z,24.22
2018-06-27T08:47:26.330Z,24.26
2018-06-27T08:49:55.291Z,24.16
2018-06-27T08:52:24.613Z,24.09
2018-06-27T08:54:53.525Z,24.08
2018-06-27T08:57:22.499Z,24.14
2018-06-27T08:59:51.877Z,24.03
2018-06-27T09:02:20.821Z,24.11
2018-06-27T09:04:49.752Z,24.16
2018-06-27T09:07:19.155Z,24.05
2018-06-27T09:09:48.120Z,24.02
2018-06-27T09:12:17.065Z,24.03
2018-06-27T09:14:46.559Z,24.09
2018-06-27T09:17:15.555Z,24.04
2018-06-27T09:19:44.429Z,24.08
2018-06-27T09:22:13.753Z,24.16
2018-06-27T09:24:42.828Z,24.26
2018-06-27T09:27:11.745Z,24.35
2018-06-27T09:29:41.072Z,24.41
2018-06-27T09:32:10.101Z,24.55
2018-06-27T09:34:39.019Z,24.55
2018-06-27T09:37:08.521Z,24.66
2018-06-27T09:39:37.418Z,24.81
2018-06-27T09:42:06.444Z,24.78
2018-06-27T09:47:44.235Z,25.01
2018-06-27T09:50:13.913Z,25.07
2018-06-27T09:52:43.688Z,25.17
2018-06-27T09:55:12.728Z,25.40
2018-06-27T09:57:41.667Z,25.53
2018-06-27T10:00:15.589Z,25.55
2018-06-27T10:02:44.950Z,25.68
2018-06-27T10:05:13.930Z,25.90
2018-06-27T10:07:42.823Z,26.13
2018-06-27T10:10:11.739Z,26.22
2018-06-27T10:12:40.649Z,26.24
2018-06-27T10:17:49.416Z,26.79
2018-06-27T10:20:18.623Z,27.11
2018-06-27T10:22:49.362Z,27.38
2018-06-27T10:25:18.432Z,27.55
2018-06-27T10:27:47.666Z,27.69
2018-06-27T10:30:17.026Z,27.98
2018-06-27T10:32:45.973Z,28.05
2018-06-27T10:35:14.965Z,27.98
2018-06-27T10:37:44.299Z,28.29
2018-06-27T10:40:13.297Z,28.63
2018-06-27T10:42:42.310Z,29.00
2018-06-27T10:45:11.864Z,29.29
2018-06-27T10:47:40.805Z,29.41
2018-06-27T10:50:09.763Z,29.24
2018-06-27T10:52:38.730Z,29.11
2018-06-27T10:55:12.780Z,29.03
2018-06-27T10:57:42.493Z,28.97
2018-06-27T11:00:11.484Z,28.83
2018-06-27T11:02:40.439Z,28.84
2018-06-27T11:05:09.690Z,28.67
2018-06-27T11:07:38.747Z,28.60
2018-06-27T11:10:07.727Z,28.55
2018-06-27T11:12:37.172Z,28.41
2018-06-27T11:15:06.667Z,28.76
2018-06-27T11:17:35.637Z,28.94
2018-06-27T11:20:05.673Z,28.82
2018-06-27T11:22:34.591Z,28.82
2018-06-27T11:25:03.601Z,28.70
2018-06-27T11:27:32.938Z,28.51
2018-06-27T11:30:03.685Z,28.48
2018-06-27T11:32:32.560Z,28.80
2018-06-27T11:35:01.919Z,29.46
2018-06-27T11:37:30.827Z,30.15
2018-06-27T11:39:59.896Z,30.32
2018-06-27T11:42:28.842Z,30.25
2018-06-27T11:44:57.777Z,30.09
2018-06-27T11:47:27.180Z,30.05
2018-06-27T11:49:56.196Z,30.08
2018-06-27T11:52:25.185Z,29.85
2018-06-27T11:54:59.537Z,29.76
2018-06-27T11:57:28.421Z,30.03
2018-06-27T11:59:57.394Z,30.41
2018-06-27T12:02:26.746Z,30.47
2018-06-27T12:05:11.087Z,30.56
2018-06-27T12:07:40.336Z,30.41
2018-06-27T12:10:09.328Z,30.44
2018-06-27T12:12:38.321Z,30.99
2018-06-27T12:15:25.404Z,31.41
2018-06-27T12:17:59.640Z,31.76
2018-06-27T12:23:43.625Z,31.61
2018-06-27T12:26:15.432Z,31.10
2018-06-27T12:28:43.961Z,30.60
2018-06-27T12:31:13.694Z,30.44
2018-06-27T12:33:42.221Z,30.36
2018-06-27T12:36:10.747Z,30.47
2018-06-27T12:38:39.628Z,30.62
2018-06-27T12:43:45.873Z,31.69
2018-06-27T12:46:14.792Z,32.32
2018-06-27T12:48:48.268Z,32.18
2018-06-27T12:51:17.212Z,31.63
2018-06-27T12:53:46.062Z,32.03
2018-06-27T12:56:14.783Z,33.14
2018-06-27T12:58:49.352Z,34.28
2018-06-27T13:01:18.280Z,34.96
2018-06-27T13:03:48.408Z,35.76
2018-06-27T13:06:17.527Z,36.50
2018-06-27T13:08:46.167Z,37.45
2018-06-27T13:11:19.103Z,38.09
2018-06-27T13:13:47.775Z,38.75
2018-06-27T13:16:17.067Z,38.02
2018-06-27T13:18:45.638Z,36.78
2018-06-27T13:21:15.988Z,35.73
2018-06-27T13:26:19.407Z,36.27
2018-06-27T13:28:58.574Z,37.33
2018-06-27T13:31:27.468Z,37.96
2018-06-27T13:33:59.825Z,37.13
2018-06-27T13:36:28.434Z,37.46
2018-06-27T13:38:57.057Z,38.83
2018-06-27T13:41:25.668Z,39.73
2018-06-27T13:43:54.640Z,40.71
2018-06-27T13:46:26.300Z,41.70
2018-06-27T13:48:54.917Z,42.20
2018-06-27T13:51:23.623Z,42.57
2018-06-27T13:53:52.520Z,43.46
2018-06-27T13:56:21.435Z,44.51
2018-06-27T13:58:49.951Z,45.14
2018-06-27T14:01:18.511Z,45.06
2018-06-27T14:03:47.807Z,45.80
2018-06-27T14:06:16.448Z,46.86
2018-06-27T14:08:46.023Z,47.34
2018-06-27T14:11:14.543Z,47.91
2018-06-27T14:13:48.417Z,48.55
2018-06-27T14:16:17.264Z,48.87
2018-06-27T14:18:45.835Z,49.58
2018-06-27T14:21:14.448Z,49.95
2018-06-27T14:23:42.992Z,50.05
2018-06-27T14:26:11.839Z,50.01
2018-06-27T14:28:45.319Z,49.39
2018-06-27T14:31:13.868Z,49.91
2018-06-27T14:33:43.575Z,50.04
2018-06-27T14:36:13.928Z,50.57
2018-06-27T14:38:42.764Z,49.30
2018-06-27T14:41:17.787Z,50.11
2018-06-27T14:43:47.239Z,50.33
2018-06-27T14:46:17.671Z,51.03
2018-06-27T14:48:50.243Z,51.70
2018-06-27T14:51:19.357Z,51.59
2018-06-27T14:53:53.374Z,51.23
2018-06-27T14:56:30.795Z,51.74
2018-06-27T14:58:59.630Z,50.92
2018-06-27T15:01:36.173Z,51.33
2018-06-27T15:04:05.822Z,51.51
2018-06-27T15:06:35.228Z,52.21
2018-06-27T15:09:04.839Z,52.26
2018-06-27T15:11:38.931Z,51.67
2018-06-27T15:14:08.624Z,51.97
2018-06-27T15:16:38.991Z,51.94
2018-06-27T15:19:07.516Z,50.97
2018-06-27T15:21:38.452Z,49.55
2018-06-27T15:24:07.076Z,48.18
2018-06-27T15:26:36.026Z,48.40
2018-06-27T15:29:05.276Z,48.80
2018-06-27T15:31:42.572Z,48.45
2018-06-27T15:34:11.516Z,47.37
2018-06-27T15:36:40.412Z,45.39
2018-06-27T15:39:17.119Z,43.39
2018-06-27T15:41:45.872Z,42.46
2018-06-27T15:44:19.098Z,42.16
2018-06-27T15:46:48.649Z,41.68
2018-06-27T15:49:22.151Z,41.49
2018-06-27T15:51:51.734Z,40.47
2018-06-27T15:54:22.924Z,40.16
2018-06-27T15:56:51.522Z,39.75
2018-06-27T15:59:22.508Z,39.13
2018-06-27T16:02:06.551Z,38.50
2018-06-27T16:04:36.177Z,37.60
2018-06-27T16:07:05.537Z,37.30
2018-06-27T16:09:35.450Z,36.46
2018-06-27T16:12:05.110Z,35.64
2018-06-27T16:14:39.224Z,34.89
2018-06-27T16:17:07.975Z,34.11
2018-06-27T16:19:38.608Z,33.81
2018-06-27T16:22:07.472Z,33.87
2018-06-27T16:24:36.293Z,33.38
2018-06-27T16:27:04.891Z,33.29
2018-06-27T16:29:33.477Z,33.20
2018-06-27T16:32:06.908Z,32.94
2018-06-27T16:34:40.044Z,32.57
2018-06-27T16:37:10.086Z,32.57
2018-06-27T16:39:38.888Z,32.85
2018-06-27T16:42:07.476Z,33.02
2018-06-27T16:44:36.128Z,32.79
2018-06-27T16:47:10.944Z,32.45
2018-06-27T16:49:41.425Z,32.22
2018-06-27T16:52:10.256Z,32.10
2018-06-27T16:54:39.097Z,31.87
2018-06-27T16:57:08.780Z,31.64
2018-06-27T16:59:54.138Z,31.54
2018-06-27T17:02:24.159Z,31.51
2018-06-27T17:04:54.205Z,31.36
2018-06-27T17:07:27.521Z,31.06
2018-06-27T17:09:57.681Z,31.03
2018-06-27T17:12:26.460Z,31.13
2018-06-27T17:14:54.953Z,31.18
2018-06-27T17:17:23.897Z,31.02
2018-06-27T17:19:52.611Z,30.80
2018-06-27T17:22:25.410Z,30.57
2018-06-27T17:24:55.559Z,30.45
2018-06-27T17:27:25.295Z,30.24
2018-06-27T17:29:53.911Z,30.13
2018-06-27T17:32:33.022Z,30.24
2018-06-27T17:35:02.107Z,30.37
2018-06-27T17:37:30.762Z,30.36
2018-06-27T17:39:59.660Z,30.38
2018-06-27T17:42:28.836Z,30.58
2018-06-27T17:44:57.505Z,30.61
2018-06-27T17:47:26.878Z,30.81
2018-06-27T17:49:56.035Z,31.07
2018-06-27T17:52:24.700Z,31.16
2018-06-27T17:54:53.566Z,31.20
2018-06-27T17:57:27.350Z,31.20
2018-06-27T17:59:55.895Z,31.22
2018-06-27T18:02:24.787Z,31.21
2018-06-27T18:04:53.553Z,31.09
2018-06-27T18:07:22.306Z,31.04
2018-06-27T18:09:51.196Z,31.06
2018-06-27T18:12:21.885Z,30.98
2018-06-27T18:14:50.473Z,30.93
2018-06-27T18:17:19.247Z,30.73
2018-06-27T18:19:53.227Z,30.59
2018-06-27T18:22:22.877Z,30.47
2018-06-27T18:24:51.772Z,30.33
2018-06-27T18:27:20.372Z,30.16
2018-06-27T18:29:48.913Z,29.97
2018-06-27T18:32:17.762Z,29.93
2018-06-27T18:34:46.382Z,29.88
2018-06-27T18:37:14.953Z,29.75
2018-06-27T18:39:44.361Z,29.52
2018-06-27T18:42:13.012Z,29.35
2018-06-27T18:44:41.629Z,29.27
2018-06-27T18:47:10.808Z,29.16
2018-06-27T18:49:40.465Z,29.07
2018-06-27T18:52:09.031Z,28.90
2018-06-27T18:54:37.882Z,28.72
2018-06-27T18:57:06.534Z,28.57
2018-06-27T18:59:35.133Z,28.44
2018-06-27T19:02:05.311Z,28.23
2018-06-27T19:04:33.869Z,28.05
2018-06-27T19:07:03.436Z,27.87
2018-06-27T19:09:35.959Z,27.70
2018-06-27T19:12:05.584Z,27.61
2018-06-27T19:17:07.545Z,27.47
2018-06-27T19:19:36.142Z,27.37
2018-06-27T19:22:05.763Z,27.27
2018-06-27T19:24:34.567Z,27.24
2018-06-27T19:27:03.111Z,27.15
2018-06-27T19:29:31.767Z,27.12
2018-06-27T19:32:04.084Z,27.11
2018-06-27T19:34:33.720Z,27.08
2018-06-27T19:37:02.506Z,27.02
2018-06-27T19:39:37.899Z,26.98
2018-06-27T19:42:05.644Z,26.91
2018-06-27T19:44:35.123Z,26.90
2018-06-27T19:47:04.411Z,26.83
2018-06-27T19:49:32.983Z,26.79
2018-06-27T19:52:03.880Z,26.75
2018-06-27T19:57:06.125Z,26.63
2018-06-27T19:59:34.954Z,26.61
2018-06-27T20:02:05.247Z,26.57
2018-06-27T20:04:34.238Z,26.53
2018-06-27T20:07:02.812Z,26.45
2018-06-27T20:09:31.929Z,26.39
2018-06-27T20:12:00.481Z,26.35
2018-06-27T20:14:30.056Z,26.30
2018-06-27T20:16:58.823Z,26.25
2018-06-27T20:19:32.288Z,26.21
2018-06-27T20:22:01.051Z,26.13
2018-06-27T20:24:30.888Z,26.07
2018-06-27T20:26:59.472Z,26.00
2018-06-27T20:29:28.012Z,25.96
2018-06-27T20:31:56.748Z,25.91
2018-06-27T20:34:26.254Z,25.84
2018-06-27T20:36:59.314Z,25.82
2018-06-27T20:39:28.166Z,25.79
2018-06-27T20:41:56.735Z,25.72
2018-06-27T20:44:25.324Z,25.62
2018-06-27T20:46:59.876Z,25.58
2018-06-27T20:49:28.498Z,25.55
2018-06-27T20:52:04.998Z,25.54
2018-06-27T20:54:34.124Z,25.50
2018-06-27T20:57:04.788Z,25.46
2018-06-27T20:59:33.353Z,25.42
2018-06-27T21:02:04.367Z,25.37
2018-06-27T21:04:34.259Z,25.36
2018-06-27T21:07:02.921Z,25.34
2018-06-27T21:09:42.450Z,25.29
2018-06-27T21:12:11.096Z,25.22
2018-06-27T21:14:40.079Z,25.18
2018-06-27T21:17:08.836Z,25.15
2018-06-27T21:19:44.210Z,25.11
2018-06-27T21:22:12.728Z,25.09
2018-06-27T21:24:45.532Z,25.10
2018-06-27T21:27:14.861Z,25.07
2018-06-27T21:29:43.467Z,25.04
2018-06-27T21:32:12.708Z,24.99
2018-06-27T21:34:42.152Z,24.94
2018-06-27T21:37:10.806Z,24.84
2018-06-27T21:39:40.147Z,24.82
2018-06-27T21:42:09.076Z,24.78
2018-06-27T21:44:43.052Z,24.73
2018-06-27T21:47:11.661Z,24.65
2018-06-27T21:49:40.584Z,24.64
2018-06-27T21:52:09.210Z,24.58
2018-06-27T21:54:38.557Z,24.58
2018-06-27T21:57:07.531Z,24.56
2018-06-27T21:59:41.020Z,24.53
2018-06-27T22:02:10.145Z,24.48
2018-06-27T22:04:38.768Z,24.47
2018-06-27T22:07:07.332Z,24.41
2018-06-27T22:09:37.323Z,24.37
2018-06-27T22:12:05.906Z,24.34
2018-06-27T22:14:34.465Z,24.33
2018-06-27T22:17:08.730Z,24.29
2018-06-27T22:19:37.275Z,24.22
2018-06-27T22:22:05.912Z,24.18
2018-06-27T22:24:35.117Z,24.10
2018-06-27T22:27:03.716Z,24.06
2018-06-27T22:29:32.403Z,24.05
2018-06-27T22:32:01.286Z,23.97
2018-06-27T22:34:29.954Z,23.93
2018-06-27T22:36:58.518Z,23.88
2018-06-27T22:39:32.516Z,23.85
2018-06-27T22:42:03.603Z,23.81
2018-06-27T22:44:32.295Z,23.80
2018-06-27T22:47:03.273Z,23.79
2018-06-27T22:49:31.879Z,23.71
2018-06-27T22:52:00.396Z,23.68
2018-06-27T22:54:29.905Z,23.66
2018-06-27T22:56:58.487Z,23.64
2018-06-27T22:59:27.000Z,23.62
2018-06-27T23:01:55.923Z,23.61
2018-06-27T23:04:24.482Z,23.59
2018-06-27T23:06:53.018Z,23.55
2018-06-27T23:09:22.395Z,23.55
2018-06-27T23:11:53.764Z,23.51
2018-06-27T23:14:22.293Z,23.48
2018-06-27T23:16:51.210Z,23.44
2018-06-27T23:19:19.766Z,23.41
2018-06-27T23:21:48.268Z,23.39
2018-06-27T23:24:20.902Z,23.36
2018-06-27T23:26:49.456Z,23.32
2018-06-27T23:29:18.040Z,23.29
2018-06-27T23:31:46.938Z,23.26
2018-06-27T23:34:15.513Z,23.24
2018-06-27T23:36:44.234Z,23.17
2018-06-27T23:39:13.976Z,23.13
2018-06-27T23:41:49.448Z,23.08
2018-06-27T23:44:18.054Z,23.05
2018-06-27T23:46:46.676Z,23.03
2018-06-27T23:49:15.248Z,23.00
2018-06-27T23:51:44.449Z,22.97
2018-06-27T23:54:12.959Z,22.95
2018-06-27T23:56:46.365Z,22.89
2018-06-27T23:59:14.909Z,22.86
